sensor_id;sensor_type;location;lat;lon;timestamp;P1;durP1;ratioP1;P2;durP2;ratioP2
253;SDS011;590;48.772;8.846;2023-04-08T00:01:23;2.67;;;2.47;;
253;SDS011;590;48.772;8.846;2023-04-08T00:03:51;2.70;;;2.50;;
253;SDS011;590;48.772;8.846;2023-04-08T00:06:20;2.93;;;2.23;;
253;SDS011;590;48.772;8.846;2023-04-08T00:08:48;3.20;;;2.90;;
253;SDS011;590;48.772;8.846;2023-04-08T00:11:17;2.57;;;2.37;;
253;SDS011;590;48.772;8.846;2023-04-08T00:13:45;2.60;;;2.40;;
253;SDS011;590;48.772;8.846;2023-04-08T00:16:13;2.57;;;2.37;;
253;SDS011;590;48.772;8.846;2023-04-08T00:18:41;2.43;;;2.23;;
253;SDS011;590;48.772;8.846;2023-04-08T00:21:09;2.60;;;2.40;;
253;SDS011;590;48.772;8.846;2023-04-08T00:23:40;2.00;;;1.90;;
253;SDS011;590;48.772;8.846;2023-04-08T00:26:08;2.33;;;2.13;;
253;SDS011;590;48.772;8.846;2023-04-08T00:28:36;1.87;;;1.77;;
253;SDS011;590;48.772;8.846;2023-04-08T00:31:04;2.73;;;2.53;;
253;SDS011;590;48.772;8.846;2023-04-08T00:33:32;2.30;;;2.10;;
253;SDS011;590;48.772;8.846;2023-04-08T00:36:00;3.43;;;2.30;;
253;SDS011;590;48.772;8.846;2023-04-08T00:38:28;2.30;;;2.10;;
253;SDS011;590;48.772;8.846;2023-04-08T00:40:58;2.33;;;2.13;;
253;SDS011;590;48.772;8.846;2023-04-08T00:43:26;1.70;;;1.60;;
253;SDS011;590;48.772;8.846;2023-04-08T00:45:54;2.70;;;2.50;;
253;SDS011;590;48.772;8.846;2023-04-08T00:48:22;2.20;;;2.00;;
253;SDS011;590;48.772;8.846;2023-04-08T00:50:50;2.20;;;2.00;;
253;SDS011;590;48.772;8.846;2023-04-08T00:53:18;2.00;;;1.90;;
253;SDS011;590;48.772;8.846;2023-04-08T00:55:46;2.20;;;2.03;;
253;SDS011;590;48.772;8.846;2023-04-08T00:58:15;2.20;;;2.10;;
253;SDS011;590;48.772;8.846;2023-04-08T01:00:45;2.13;;;1.97;;
253;SDS011;590;48.772;8.846;2023-04-08T01:03:23;2.00;;;1.90;;
253;SDS011;590;48.772;8.846;2023-04-08T01:06:03;2.33;;;2.13;;
253;SDS011;590;48.772;8.846;2023-04-08T01:08:37;2.27;;;2.07;;
253;SDS011;590;48.772;8.846;2023-04-08T01:11:07;2.13;;;1.57;;
253;SDS011;590;48.772;8.846;2023-04-08T01:13:39;1.90;;;1.80;;
253;SDS011;590;48.772;8.846;2023-04-08T01:16:10;2.20;;;2.00;;
253;SDS011;590;48.772;8.846;2023-04-08T01:18:40;2.40;;;2.20;;
253;SDS011;590;48.772;8.846;2023-04-08T01:21:11;1.87;;;1.77;;
253;SDS011;590;48.772;8.846;2023-04-08T01:23:42;2.30;;;2.10;;
253;SDS011;590;48.772;8.846;2023-04-08T01:26:21;2.00;;;1.90;;
253;SDS011;590;48.772;8.846;2023-04-08T01:28:51;2.53;;;2.30;;
253;SDS011;590;48.772;8.846;2023-04-08T01:31:21;2.27;;;2.07;;
253;SDS011;590;48.772;8.846;2023-04-08T01:33:51;1.90;;;1.80;;
253;SDS011;590;48.772;8.846;2023-04-08T01:36:20;1.90;;;1.80;;
253;SDS011;590;48.772;8.846;2023-04-08T01:38:50;2.23;;;2.03;;
253;SDS011;590;48.772;8.846;2023-04-08T01:41:20;2.20;;;2.00;;
253;SDS011;590;48.772;8.846;2023-04-08T01:43:48;2.20;;;2.00;;
253;SDS011;590;48.772;8.846;2023-04-08T01:46:18;1.80;;;1.70;;
253;SDS011;590;48.772;8.846;2023-04-08T01:48:48;2.30;;;2.10;;
253;SDS011;590;48.772;8.846;2023-04-08T01:51:17;1.80;;;1.70;;
253;SDS011;590;48.772;8.846;2023-04-08T01:53:46;2.33;;;2.13;;
253;SDS011;590;48.772;8.846;2023-04-08T01:56:14;2.00;;;1.90;;
253;SDS011;590;48.772;8.846;2023-04-08T01:58:45;1.73;;;1.63;;
253;SDS011;590;48.772;8.846;2023-04-08T02:01:16;1.87;;;1.80;;
253;SDS011;590;48.772;8.846;2023-04-08T02:03:46;2.00;;;1.90;;
253;SDS011;590;48.772;8.846;2023-04-08T02:06:17;1.90;;;1.83;;
253;SDS011;590;48.772;8.846;2023-04-08T02:08:45;1.70;;;1.60;;
253;SDS011;590;48.772;8.846;2023-04-08T02:11:14;2.50;;;2.30;;
253;SDS011;590;48.772;8.846;2023-04-08T02:13:42;2.37;;;2.20;;
253;SDS011;590;48.772;8.846;2023-04-08T02:16:13;1.83;;;1.73;;
253;SDS011;590;48.772;8.846;2023-04-08T02:18:48;1.87;;;1.77;;
253;SDS011;590;48.772;8.846;2023-04-08T02:21:25;1.90;;;1.80;;
253;SDS011;590;48.772;8.846;2023-04-08T02:23:58;2.20;;;2.00;;
253;SDS011;590;48.772;8.846;2023-04-08T02:26:29;1.40;;;1.30;;
253;SDS011;590;48.772;8.846;2023-04-08T02:29:00;2.20;;;2.00;;
253;SDS011;590;48.772;8.846;2023-04-08T02:31:31;2.13;;;1.97;;
253;SDS011;590;48.772;8.846;2023-04-08T02:34:00;1.93;;;1.80;;
253;SDS011;590;48.772;8.846;2023-04-08T02:36:30;2.20;;;2.00;;
253;SDS011;590;48.772;8.846;2023-04-08T02:38:59;1.90;;;1.80;;
253;SDS011;590;48.772;8.846;2023-04-08T02:41:27;2.40;;;2.20;;
253;SDS011;590;48.772;8.846;2023-04-08T02:43:55;1.80;;;1.70;;
253;SDS011;590;48.772;8.846;2023-04-08T02:46:23;2.00;;;1.90;;
253;SDS011;590;48.772;8.846;2023-04-08T02:48:53;1.50;;;1.40;;
253;SDS011;590;48.772;8.846;2023-04-08T02:51:21;1.60;;;1.50;;
253;SDS011;590;48.772;8.846;2023-04-08T02:53:48;1.83;;;1.73;;
253;SDS011;590;48.772;8.846;2023-04-08T02:56:16;1.83;;;1.73;;
253;SDS011;590;48.772;8.846;2023-04-08T02:58:44;1.50;;;1.40;;
253;SDS011;590;48.772;8.846;2023-04-08T03:01:13;1.60;;;1.50;;
253;SDS011;590;48.772;8.846;2023-04-08T03:03:41;1.63;;;1.53;;
253;SDS011;590;48.772;8.846;2023-04-08T03:06:10;2.07;;;1.93;;
253;SDS011;590;48.772;8.846;2023-04-08T03:08:38;1.70;;;1.60;;
253;SDS011;590;48.772;8.846;2023-04-08T03:11:06;1.70;;;1.60;;
253;SDS011;590;48.772;8.846;2023-04-08T03:13:34;1.53;;;1.43;;
253;SDS011;590;48.772;8.846;2023-04-08T03:16:03;2.30;;;2.10;;
253;SDS011;590;48.772;8.846;2023-04-08T03:18:32;1.40;;;1.30;;
253;SDS011;590;48.772;8.846;2023-04-08T03:21:00;1.40;;;1.30;;
253;SDS011;590;48.772;8.846;2023-04-08T03:23:30;1.80;;;1.70;;
253;SDS011;590;48.772;8.846;2023-04-08T03:25:57;1.80;;;1.70;;
253;SDS011;590;48.772;8.846;2023-04-08T03:28:26;2.23;;;2.03;;
253;SDS011;590;48.772;8.846;2023-04-08T03:30:54;1.80;;;1.70;;
253;SDS011;590;48.772;8.846;2023-04-08T03:33:21;1.70;;;1.60;;
253;SDS011;590;48.772;8.846;2023-04-08T03:35:49;1.70;;;1.60;;
253;SDS011;590;48.772;8.846;2023-04-08T03:38:17;1.87;;;1.77;;
253;SDS011;590;48.772;8.846;2023-04-08T03:40:47;1.50;;;1.40;;
253;SDS011;590;48.772;8.846;2023-04-08T03:43:15;1.90;;;1.80;;
253;SDS011;590;48.772;8.846;2023-04-08T03:45:44;1.80;;;1.70;;
253;SDS011;590;48.772;8.846;2023-04-08T03:48:12;1.40;;;1.30;;
253;SDS011;590;48.772;8.846;2023-04-08T03:50:40;1.73;;;1.63;;
253;SDS011;590;48.772;8.846;2023-04-08T03:53:09;1.80;;;1.70;;
253;SDS011;590;48.772;8.846;2023-04-08T03:55:38;1.60;;;1.50;;
253;SDS011;590;48.772;8.846;2023-04-08T03:58:07;1.80;;;1.70;;
253;SDS011;590;48.772;8.846;2023-04-08T04:00:35;2.00;;;1.90;;
253;SDS011;590;48.772;8.846;2023-04-08T04:03:03;2.00;;;1.90;;
253;SDS011;590;48.772;8.846;2023-04-08T04:05:31;1.97;;;1.87;;
253;SDS011;590;48.772;8.846;2023-04-08T04:07:59;1.67;;;1.57;;
253;SDS011;590;48.772;8.846;2023-04-08T04:10:27;2.40;;;2.20;;
253;SDS011;590;48.772;8.846;2023-04-08T04:12:55;1.80;;;1.70;;
253;SDS011;590;48.772;8.846;2023-04-08T04:15:25;1.67;;;1.57;;
253;SDS011;590;48.772;8.846;2023-04-08T04:17:53;1.93;;;1.83;;
253;SDS011;590;48.772;8.846;2023-04-08T04:20:21;1.80;;;1.70;;
253;SDS011;590;48.772;8.846;2023-04-08T04:22:51;1.80;;;1.70;;
253;SDS011;590;48.772;8.846;2023-04-08T04:25:19;1.80;;;1.70;;
253;SDS011;590;48.772;8.846;2023-04-08T04:27:47;1.67;;;1.57;;
253;SDS011;590;48.772;8.846;2023-04-08T04:30:15;2.07;;;1.93;;
253;SDS011;590;48.772;8.846;2023-04-08T04:32:46;2.53;;;2.33;;
253;SDS011;590;48.772;8.846;2023-04-08T04:35:14;2.00;;;1.90;;
253;SDS011;590;48.772;8.846;2023-04-08T04:37:42;1.70;;;1.60;;
253;SDS011;590;48.772;8.846;2023-04-08T04:40:10;1.70;;;1.60;;
253;SDS011;590;48.772;8.846;2023-04-08T04:42:38;1.90;;;1.80;;
253;SDS011;590;48.772;8.846;2023-04-08T04:45:07;1.90;;;1.80;;
253;SDS011;590;48.772;8.846;2023-04-08T04:47:35;2.20;;;2.00;;
253;SDS011;590;48.772;8.846;2023-04-08T04:50:05;1.60;;;1.50;;
253;SDS011;590;48.772;8.846;2023-04-08T04:52:34;2.20;;;2.00;;
253;SDS011;590;48.772;8.846;2023-04-08T04:55:03;1.67;;;1.57;;
253;SDS011;590;48.772;8.846;2023-04-08T04:57:31;1.50;;;1.40;;
253;SDS011;590;48.772;8.846;2023-04-08T04:59:59;1.90;;;1.80;;
253;SDS011;590;48.772;8.846;2023-04-08T05:02:30;1.50;;;1.40;;
253;SDS011;590;48.772;8.846;2023-04-08T05:04:58;1.70;;;1.60;;
253;SDS011;590;48.772;8.846;2023-04-08T05:07:28;1.60;;;1.50;;
253;SDS011;590;48.772;8.846;2023-04-08T05:09:56;1.93;;;1.83;;
253;SDS011;590;48.772;8.846;2023-04-08T05:12:24;1.63;;;1.53;;
253;SDS011;590;48.772;8.846;2023-04-08T05:14:53;2.40;;;1.60;;
253;SDS011;590;48.772;8.846;2023-04-08T05:17:21;1.53;;;1.43;;
253;SDS011;590;48.772;8.846;2023-04-08T05:19:49;2.00;;;1.90;;
253;SDS011;590;48.772;8.846;2023-04-08T05:22:18;1.83;;;1.73;;
253;SDS011;590;48.772;8.846;2023-04-08T05:24:47;2.20;;;2.00;;
253;SDS011;590;48.772;8.846;2023-04-08T05:27:15;1.70;;;1.60;;
253;SDS011;590;48.772;8.846;2023-04-08T05:29:43;1.80;;;1.70;;
253;SDS011;590;48.772;8.846;2023-04-08T05:32:11;1.73;;;1.63;;
253;SDS011;590;48.772;8.846;2023-04-08T05:34:41;1.90;;;1.80;;
253;SDS011;590;48.772;8.846;2023-04-08T05:37:10;1.93;;;1.60;;
253;SDS011;590;48.772;8.846;2023-04-08T05:39:38;1.47;;;1.37;;
253;SDS011;590;48.772;8.846;2023-04-08T05:42:07;1.50;;;1.40;;
253;SDS011;590;48.772;8.846;2023-04-08T05:44:36;1.80;;;1.70;;
253;SDS011;590;48.772;8.846;2023-04-08T05:47:06;1.63;;;1.53;;
253;SDS011;590;48.772;8.846;2023-04-08T05:49:34;1.77;;;1.67;;
253;SDS011;590;48.772;8.846;2023-04-08T05:52:02;1.73;;;1.50;;
253;SDS011;590;48.772;8.846;2023-04-08T05:54:30;1.97;;;1.87;;
253;SDS011;590;48.772;8.846;2023-04-08T05:56:58;1.50;;;1.40;;
253;SDS011;590;48.772;8.846;2023-04-08T05:59:27;1.93;;;1.80;;
253;SDS011;590;48.772;8.846;2023-04-08T06:01:55;1.87;;;1.80;;
253;SDS011;590;48.772;8.846;2023-04-08T06:04:23;1.60;;;1.50;;
253;SDS011;590;48.772;8.846;2023-04-08T06:06:52;2.27;;;2.07;;
253;SDS011;590;48.772;8.846;2023-04-08T06:09:19;1.70;;;1.60;;
253;SDS011;590;48.772;8.846;2023-04-08T06:11:47;1.63;;;1.53;;
253;SDS011;590;48.772;8.846;2023-04-08T06:14:16;1.33;;;1.23;;
253;SDS011;590;48.772;8.846;2023-04-08T06:16:45;1.97;;;1.87;;
253;SDS011;590;48.772;8.846;2023-04-08T06:19:13;1.73;;;1.63;;
253;SDS011;590;48.772;8.846;2023-04-08T06:21:42;2.50;;;1.93;;
253;SDS011;590;48.772;8.846;2023-04-08T06:24:09;1.80;;;1.70;;
253;SDS011;590;48.772;8.846;2023-04-08T06:26:37;1.90;;;1.80;;
253;SDS011;590;48.772;8.846;2023-04-08T06:29:05;1.90;;;1.80;;
253;SDS011;590;48.772;8.846;2023-04-08T06:31:33;1.60;;;1.50;;
253;SDS011;590;48.772;8.846;2023-04-08T06:34:03;1.63;;;1.53;;
253;SDS011;590;48.772;8.846;2023-04-08T06:36:31;2.13;;;1.97;;
253;SDS011;590;48.772;8.846;2023-04-08T06:38:59;1.57;;;1.57;;
253;SDS011;590;48.772;8.846;2023-04-08T06:41:27;1.80;;;1.70;;
253;SDS011;590;48.772;8.846;2023-04-08T06:43:55;1.80;;;1.70;;
253;SDS011;590;48.772;8.846;2023-04-08T06:46:23;1.97;;;1.87;;
253;SDS011;590;48.772;8.846;2023-04-08T06:48:51;1.87;;;1.77;;
253;SDS011;590;48.772;8.846;2023-04-08T06:51:22;1.63;;;1.53;;
253;SDS011;590;48.772;8.846;2023-04-08T06:53:50;1.70;;;1.60;;
253;SDS011;590;48.772;8.846;2023-04-08T06:56:18;1.30;;;1.20;;
253;SDS011;590;48.772;8.846;2023-04-08T06:58:47;1.67;;;1.57;;
253;SDS011;590;48.772;8.846;2023-04-08T07:01:16;2.13;;;1.73;;
253;SDS011;590;48.772;8.846;2023-04-08T07:03:44;2.00;;;1.90;;
253;SDS011;590;48.772;8.846;2023-04-08T07:06:12;1.70;;;1.60;;
253;SDS011;590;48.772;8.846;2023-04-08T07:08:42;1.70;;;1.60;;
253;SDS011;590;48.772;8.846;2023-04-08T07:11:10;1.70;;;1.60;;
253;SDS011;590;48.772;8.846;2023-04-08T07:13:38;1.40;;;1.30;;
253;SDS011;590;48.772;8.846;2023-04-08T07:16:06;1.80;;;1.70;;
253;SDS011;590;48.772;8.846;2023-04-08T07:18:34;1.77;;;1.67;;
253;SDS011;590;48.772;8.846;2023-04-08T07:21:03;2.20;;;2.00;;
253;SDS011;590;48.772;8.846;2023-04-08T07:23:31;1.97;;;1.87;;
253;SDS011;590;48.772;8.846;2023-04-08T07:26:02;1.67;;;1.57;;
253;SDS011;590;48.772;8.846;2023-04-08T07:28:30;1.60;;;1.50;;
253;SDS011;590;48.772;8.846;2023-04-08T07:31:07;1.90;;;1.80;;
253;SDS011;590;48.772;8.846;2023-04-08T07:33:36;1.60;;;1.43;;
253;SDS011;590;48.772;8.846;2023-04-08T07:36:04;1.50;;;1.40;;
253;SDS011;590;48.772;8.846;2023-04-08T07:38:32;1.60;;;1.50;;
253;SDS011;590;48.772;8.846;2023-04-08T07:41:02;1.50;;;1.40;;
253;SDS011;590;48.772;8.846;2023-04-08T07:43:30;1.70;;;1.60;;
253;SDS011;590;48.772;8.846;2023-04-08T07:46:00;2.13;;;1.97;;
253;SDS011;590;48.772;8.846;2023-04-08T07:48:29;1.50;;;1.40;;
253;SDS011;590;48.772;8.846;2023-04-08T07:51:02;1.90;;;1.80;;
253;SDS011;590;48.772;8.846;2023-04-08T07:53:35;1.80;;;1.70;;
253;SDS011;590;48.772;8.846;2023-04-08T07:56:10;1.50;;;1.40;;
253;SDS011;590;48.772;8.846;2023-04-08T07:58:39;1.50;;;1.40;;
253;SDS011;590;48.772;8.846;2023-04-08T08:01:14;1.80;;;1.70;;
253;SDS011;590;48.772;8.846;2023-04-08T08:03:43;1.43;;;1.33;;
253;SDS011;590;48.772;8.846;2023-04-08T08:06:13;1.40;;;1.30;;
253;SDS011;590;48.772;8.846;2023-04-08T08:08:41;1.40;;;1.30;;
253;SDS011;590;48.772;8.846;2023-04-08T08:11:11;1.20;;;1.10;;
253;SDS011;590;48.772;8.846;2023-04-08T08:13:39;1.90;;;1.80;;
253;SDS011;590;48.772;8.846;2023-04-08T08:16:07;1.67;;;1.57;;
253;SDS011;590;48.772;8.846;2023-04-08T08:18:37;1.80;;;1.70;;
253;SDS011;590;48.772;8.846;2023-04-08T08:21:06;1.60;;;1.50;;
253;SDS011;590;48.772;8.846;2023-04-08T08:23:35;2.13;;;1.63;;
253;SDS011;590;48.772;8.846;2023-04-08T08:26:04;2.17;;;1.87;;
253;SDS011;590;48.772;8.846;2023-04-08T08:28:36;1.47;;;1.37;;
253;SDS011;590;48.772;8.846;2023-04-08T08:31:05;1.80;;;1.70;;
253;SDS011;590;48.772;8.846;2023-04-08T08:33:33;1.77;;;1.50;;
253;SDS011;590;48.772;8.846;2023-04-08T08:36:01;1.93;;;1.83;;
253;SDS011;590;48.772;8.846;2023-04-08T08:38:30;3.00;;;1.75;;
253;SDS011;590;48.772;8.846;2023-04-08T08:40:59;1.90;;;1.87;;
253;SDS011;590;48.772;8.846;2023-04-08T08:43:27;1.77;;;1.67;;
253;SDS011;590;48.772;8.846;2023-04-08T08:45:59;1.90;;;1.80;;
253;SDS011;590;48.772;8.846;2023-04-08T08:48:28;1.87;;;1.77;;
253;SDS011;590;48.772;8.846;2023-04-08T08:50:57;1.87;;;1.83;;
253;SDS011;590;48.772;8.846;2023-04-08T08:53:27;1.90;;;1.60;;
253;SDS011;590;48.772;8.846;2023-04-08T08:56:00;2.07;;;1.83;;
253;SDS011;590;48.772;8.846;2023-04-08T08:58:31;3.30;;;2.10;;
253;SDS011;590;48.772;8.846;2023-04-08T09:01:01;2.40;;;2.20;;
253;SDS011;590;48.772;8.846;2023-04-08T09:03:29;3.37;;;1.80;;
253;SDS011;590;48.772;8.846;2023-04-08T09:05:58;1.80;;;1.70;;
253;SDS011;590;48.772;8.846;2023-04-08T09:08:29;2.27;;;2.07;;
253;SDS011;590;48.772;8.846;2023-04-08T09:11:11;1.70;;;1.60;;
253;SDS011;590;48.772;8.846;2023-04-08T09:13:40;2.00;;;1.90;;
253;SDS011;590;48.772;8.846;2023-04-08T09:16:10;1.90;;;1.83;;
253;SDS011;590;48.772;8.846;2023-04-08T09:18:40;1.60;;;1.50;;
253;SDS011;590;48.772;8.846;2023-04-08T09:21:10;2.00;;;1.90;;
253;SDS011;590;48.772;8.846;2023-04-08T09:23:40;2.47;;;1.83;;
253;SDS011;590;48.772;8.846;2023-04-08T09:26:09;2.23;;;2.03;;
253;SDS011;590;48.772;8.846;2023-04-08T09:28:38;2.57;;;1.77;;
253;SDS011;590;48.772;8.846;2023-04-08T09:31:18;2.23;;;2.10;;
253;SDS011;590;48.772;8.846;2023-04-08T09:33:48;2.40;;;2.20;;
253;SDS011;590;48.772;8.846;2023-04-08T09:36:17;2.20;;;2.00;;
253;SDS011;590;48.772;8.846;2023-04-08T09:38:45;1.63;;;1.53;;
253;SDS011;590;48.772;8.846;2023-04-08T09:41:15;1.90;;;1.80;;
253;SDS011;590;48.772;8.846;2023-04-08T09:43:46;1.90;;;1.80;;
253;SDS011;590;48.772;8.846;2023-04-08T09:46:18;2.37;;;2.10;;
253;SDS011;590;48.772;8.846;2023-04-08T09:48:57;2.20;;;2.00;;
253;SDS011;590;48.772;8.846;2023-04-08T09:51:31;2.30;;;2.10;;
253;SDS011;590;48.772;8.846;2023-04-08T09:54:05;2.27;;;2.07;;
253;SDS011;590;48.772;8.846;2023-04-08T09:56:40;2.17;;;2.00;;
253;SDS011;590;48.772;8.846;2023-04-08T09:59:11;2.47;;;2.27;;
253;SDS011;590;48.772;8.846;2023-04-08T10:01:45;2.47;;;2.27;;
253;SDS011;590;48.772;8.846;2023-04-08T10:04:20;2.33;;;2.13;;
253;SDS011;590;48.772;8.846;2023-04-08T10:06:51;2.67;;;2.47;;
253;SDS011;590;48.772;8.846;2023-04-08T10:09:23;1.90;;;1.80;;
253;SDS011;590;48.772;8.846;2023-04-08T10:11:53;2.40;;;2.20;;
253;SDS011;590;48.772;8.846;2023-04-08T10:14:22;2.40;;;2.20;;
253;SDS011;590;48.772;8.846;2023-04-08T10:19:52;2.70;;;2.50;;
253;SDS011;590;48.772;8.846;2023-04-08T10:30:52;2.50;;;2.30;;
253;SDS011;590;48.772;8.846;2023-04-08T10:33:24;2.53;;;2.33;;
253;SDS011;590;48.772;8.846;2023-04-08T10:36:00;2.50;;;2.30;;
253;SDS011;590;48.772;8.846;2023-04-08T10:38:36;2.20;;;2.03;;
253;SDS011;590;48.772;8.846;2023-04-08T10:41:05;2.50;;;2.10;;
253;SDS011;590;48.772;8.846;2023-04-08T10:43:33;2.70;;;2.50;;
253;SDS011;590;48.772;8.846;2023-04-08T10:46:02;2.70;;;2.50;;
253;SDS011;590;48.772;8.846;2023-04-08T10:48:33;2.97;;;2.77;;
253;SDS011;590;48.772;8.846;2023-04-08T10:51:01;2.57;;;2.37;;
253;SDS011;590;48.772;8.846;2023-04-08T10:53:30;2.53;;;2.33;;
253;SDS011;590;48.772;8.846;2023-04-08T10:56:03;2.53;;;2.20;;
253;SDS011;590;48.772;8.846;2023-04-08T10:58:32;2.87;;;2.67;;
253;SDS011;590;48.772;8.846;2023-04-08T11:01:02;2.70;;;2.50;;
253;SDS011;590;48.772;8.846;2023-04-08T11:03:33;2.60;;;2.40;;
253;SDS011;590;48.772;8.846;2023-04-08T11:06:04;2.63;;;2.43;;
253;SDS011;590;48.772;8.846;2023-04-08T11:08:33;2.70;;;2.50;;
253;SDS011;590;48.772;8.846;2023-04-08T11:11:03;2.70;;;2.50;;
253;SDS011;590;48.772;8.846;2023-04-08T11:13:34;2.50;;;2.30;;
253;SDS011;590;48.772;8.846;2023-04-08T11:16:03;2.57;;;2.40;;
253;SDS011;590;48.772;8.846;2023-04-08T11:18:45;2.60;;;2.40;;
253;SDS011;590;48.772;8.846;2023-04-08T11:21:13;2.57;;;2.37;;
253;SDS011;590;48.772;8.846;2023-04-08T11:23:42;2.27;;;2.07;;
253;SDS011;590;48.772;8.846;2023-04-08T11:26:10;2.40;;;2.20;;
253;SDS011;590;48.772;8.846;2023-04-08T11:28:39;2.20;;;2.00;;
253;SDS011;590;48.772;8.846;2023-04-08T11:31:08;2.90;;;2.70;;
253;SDS011;590;48.772;8.846;2023-04-08T11:33:40;2.80;;;2.60;;
253;SDS011;590;48.772;8.846;2023-04-08T11:36:14;2.77;;;2.57;;
253;SDS011;590;48.772;8.846;2023-04-08T11:38:44;2.73;;;2.53;;
253;SDS011;590;48.772;8.846;2023-04-08T11:41:13;2.50;;;2.30;;
253;SDS011;590;48.772;8.846;2023-04-08T11:43:51;2.57;;;2.37;;
253;SDS011;590;48.772;8.846;2023-04-08T11:46:23;2.63;;;2.43;;
253;SDS011;590;48.772;8.846;2023-04-08T11:49:00;2.53;;;2.33;;
253;SDS011;590;48.772;8.846;2023-04-08T11:51:33;3.30;;;3.10;;
253;SDS011;590;48.772;8.846;2023-04-08T11:54:03;2.57;;;2.37;;
253;SDS011;590;48.772;8.846;2023-04-08T11:56:43;2.40;;;2.20;;
253;SDS011;590;48.772;8.846;2023-04-08T11:59:12;2.53;;;2.33;;
253;SDS011;590;48.772;8.846;2023-04-08T12:01:40;2.40;;;2.20;;
253;SDS011;590;48.772;8.846;2023-04-08T12:04:10;2.87;;;2.67;;
253;SDS011;590;48.772;8.846;2023-04-08T12:06:38;2.70;;;2.50;;
253;SDS011;590;48.772;8.846;2023-04-08T12:09:08;3.47;;;3.27;;
253;SDS011;590;48.772;8.846;2023-04-08T12:11:36;3.30;;;3.10;;
253;SDS011;590;48.772;8.846;2023-04-08T12:14:05;3.30;;;3.10;;
253;SDS011;590;48.772;8.846;2023-04-08T12:16:33;2.93;;;2.73;;
253;SDS011;590;48.772;8.846;2023-04-08T12:19:01;2.80;;;2.60;;
253;SDS011;590;48.772;8.846;2023-04-08T12:21:30;2.17;;;2.00;;
253;SDS011;590;48.772;8.846;2023-04-08T12:23:59;3.10;;;2.90;;
253;SDS011;590;48.772;8.846;2023-04-08T12:26:27;2.70;;;2.50;;
253;SDS011;590;48.772;8.846;2023-04-08T12:28:55;2.87;;;2.67;;
253;SDS011;590;48.772;8.846;2023-04-08T12:31:23;2.57;;;2.37;;
253;SDS011;590;48.772;8.846;2023-04-08T12:33:53;2.70;;;2.50;;
253;SDS011;590;48.772;8.846;2023-04-08T12:36:21;2.93;;;2.73;;
253;SDS011;590;48.772;8.846;2023-04-08T12:38:50;2.63;;;2.43;;
253;SDS011;590;48.772;8.846;2023-04-08T12:41:18;3.03;;;2.83;;
253;SDS011;590;48.772;8.846;2023-04-08T12:43:47;2.90;;;2.70;;
253;SDS011;590;48.772;8.846;2023-04-08T12:46:14;2.73;;;2.53;;
253;SDS011;590;48.772;8.846;2023-04-08T12:48:42;2.30;;;2.10;;
253;SDS011;590;48.772;8.846;2023-04-08T12:51:12;2.70;;;2.50;;
253;SDS011;590;48.772;8.846;2023-04-08T12:53:40;2.90;;;2.70;;
253;SDS011;590;48.772;8.846;2023-04-08T12:56:10;2.93;;;2.73;;
253;SDS011;590;48.772;8.846;2023-04-08T12:58:38;2.50;;;2.30;;
253;SDS011;590;48.772;8.846;2023-04-08T13:01:07;2.40;;;2.20;;
253;SDS011;590;48.772;8.846;2023-04-08T13:03:35;2.90;;;2.70;;
253;SDS011;590;48.772;8.846;2023-04-08T13:06:03;2.60;;;2.40;;
253;SDS011;590;48.772;8.846;2023-04-08T13:08:31;2.90;;;2.70;;
253;SDS011;590;48.772;8.846;2023-04-08T13:10:59;2.60;;;2.40;;
253;SDS011;590;48.772;8.846;2023-04-08T13:13:29;2.57;;;2.37;;
253;SDS011;590;48.772;8.846;2023-04-08T13:15:57;2.70;;;2.50;;
253;SDS011;590;48.772;8.846;2023-04-08T13:18:26;3.03;;;2.83;;
253;SDS011;590;48.772;8.846;2023-04-08T13:20:54;2.70;;;2.50;;
253;SDS011;590;48.772;8.846;2023-04-08T13:23:23;3.10;;;2.90;;
253;SDS011;590;48.772;8.846;2023-04-08T13:25:52;3.03;;;2.83;;
253;SDS011;590;48.772;8.846;2023-04-08T13:28:20;3.07;;;2.87;;
253;SDS011;590;48.772;8.846;2023-04-08T13:30:49;2.70;;;2.50;;
253;SDS011;590;48.772;8.846;2023-04-08T13:33:17;2.70;;;2.50;;
253;SDS011;590;48.772;8.846;2023-04-08T13:35:46;2.50;;;2.30;;
253;SDS011;590;48.772;8.846;2023-04-08T13:38:21;3.20;;;3.00;;
253;SDS011;590;48.772;8.846;2023-04-08T13:40:49;3.03;;;2.83;;
253;SDS011;590;48.772;8.846;2023-04-08T13:43:18;2.80;;;2.60;;
253;SDS011;590;48.772;8.846;2023-04-08T13:45:46;3.00;;;2.80;;
253;SDS011;590;48.772;8.846;2023-04-08T13:48:15;3.13;;;2.93;;
253;SDS011;590;48.772;8.846;2023-04-08T13:50:43;2.90;;;2.70;;
253;SDS011;590;48.772;8.846;2023-04-08T13:53:12;2.60;;;2.40;;
253;SDS011;590;48.772;8.846;2023-04-08T13:55:43;2.60;;;2.40;;
253;SDS011;590;48.772;8.846;2023-04-08T13:58:11;2.80;;;2.60;;
253;SDS011;590;48.772;8.846;2023-04-08T14:00:49;2.53;;;2.33;;
253;SDS011;590;48.772;8.846;2023-04-08T14:03:19;2.83;;;2.63;;
253;SDS011;590;48.772;8.846;2023-04-08T14:05:47;2.80;;;2.60;;
253;SDS011;590;48.772;8.846;2023-04-08T14:08:16;3.00;;;2.80;;
253;SDS011;590;48.772;8.846;2023-04-08T14:10:50;2.70;;;2.50;;
253;SDS011;590;48.772;8.846;2023-04-08T14:13:18;3.17;;;2.97;;
253;SDS011;590;48.772;8.846;2023-04-08T14:15:46;3.10;;;2.90;;
253;SDS011;590;48.772;8.846;2023-04-08T14:18:15;2.97;;;2.77;;
253;SDS011;590;48.772;8.846;2023-04-08T14:20:57;2.80;;;2.60;;
253;SDS011;590;48.772;8.846;2023-04-08T14:23:25;2.60;;;2.40;;
253;SDS011;590;48.772;8.846;2023-04-08T14:25:53;2.93;;;2.73;;
253;SDS011;590;48.772;8.846;2023-04-08T14:28:21;3.10;;;2.90;;
253;SDS011;590;48.772;8.846;2023-04-08T14:30:49;2.93;;;2.73;;
253;SDS011;590;48.772;8.846;2023-04-08T14:33:17;3.40;;;2.50;;
253;SDS011;590;48.772;8.846;2023-04-08T14:35:45;2.83;;;2.63;;
253;SDS011;590;48.772;8.846;2023-04-08T14:38:15;2.63;;;2.43;;
253;SDS011;590;48.772;8.846;2023-04-08T14:40:43;3.00;;;2.80;;
253;SDS011;590;48.772;8.846;2023-04-08T14:43:11;3.00;;;2.80;;
253;SDS011;590;48.772;8.846;2023-04-08T14:45:39;2.30;;;2.10;;
253;SDS011;590;48.772;8.846;2023-04-08T14:48:07;2.53;;;2.33;;
253;SDS011;590;48.772;8.846;2023-04-08T14:50:35;2.80;;;2.60;;
253;SDS011;590;48.772;8.846;2023-04-08T14:53:04;2.70;;;2.50;;
253;SDS011;590;48.772;8.846;2023-04-08T14:55:33;2.40;;;2.20;;
253;SDS011;590;48.772;8.846;2023-04-08T14:58:01;2.60;;;2.40;;
253;SDS011;590;48.772;8.846;2023-04-08T15:00:29;3.23;;;3.03;;
253;SDS011;590;48.772;8.846;2023-04-08T15:02:57;3.10;;;2.90;;
253;SDS011;590;48.772;8.846;2023-04-08T15:05:26;2.80;;;2.60;;
253;SDS011;590;48.772;8.846;2023-04-08T15:07:54;3.00;;;2.80;;
253;SDS011;590;48.772;8.846;2023-04-08T15:10:23;2.50;;;2.30;;
253;SDS011;590;48.772;8.846;2023-04-08T15:12:54;2.80;;;2.60;;
253;SDS011;590;48.772;8.846;2023-04-08T15:15:22;2.67;;;2.47;;
253;SDS011;590;48.772;8.846;2023-04-08T15:17:50;2.90;;;2.70;;
253;SDS011;590;48.772;8.846;2023-04-08T15:20:18;2.27;;;2.07;;
253;SDS011;590;48.772;8.846;2023-04-08T15:22:46;2.50;;;2.30;;
253;SDS011;590;48.772;8.846;2023-04-08T15:25:14;2.77;;;2.57;;
253;SDS011;590;48.772;8.846;2023-04-08T15:27:42;3.10;;;2.90;;
253;SDS011;590;48.772;8.846;2023-04-08T15:30:12;3.37;;;3.17;;
253;SDS011;590;48.772;8.846;2023-04-08T15:32:40;2.90;;;2.70;;
253;SDS011;590;48.772;8.846;2023-04-08T15:35:09;2.50;;;2.30;;
253;SDS011;590;48.772;8.846;2023-04-08T15:37:37;3.10;;;2.90;;
253;SDS011;590;48.772;8.846;2023-04-08T15:40:05;3.07;;;2.87;;
253;SDS011;590;48.772;8.846;2023-04-08T15:42:35;2.43;;;2.23;;
253;SDS011;590;48.772;8.846;2023-04-08T15:45:03;3.07;;;2.87;;
253;SDS011;590;48.772;8.846;2023-04-08T15:47:32;3.10;;;2.90;;
253;SDS011;590;48.772;8.846;2023-04-08T15:50:01;2.77;;;2.57;;
253;SDS011;590;48.772;8.846;2023-04-08T15:52:29;2.93;;;2.73;;
253;SDS011;590;48.772;8.846;2023-04-08T15:55:00;2.70;;;2.50;;
253;SDS011;590;48.772;8.846;2023-04-08T15:57:28;4.00;;;3.20;;
253;SDS011;590;48.772;8.846;2023-04-08T15:59:57;2.87;;;2.67;;
253;SDS011;590;48.772;8.846;2023-04-08T16:02:25;2.97;;;2.77;;
253;SDS011;590;48.772;8.846;2023-04-08T16:04:55;3.00;;;2.80;;
253;SDS011;590;48.772;8.846;2023-04-08T16:07:23;3.20;;;3.00;;
253;SDS011;590;48.772;8.846;2023-04-08T16:09:51;3.47;;;3.27;;